Time;durP1;ratioP1;P1;durP2;ratioP2;P2;SDS_P1;SDS_P2;PMS_P1;PMS_P2;Temp;Humidity;BMP_temperature;BMP_pressure;BME280_temperature;BME280_humidity;BME280_pressure;Samples;Min_cycle;Max_cycle;Signal;HPM_P1;HPM_P2
2021/10/26 00:00:42;;;;;;;50.67;27.10;;;10.30;99.90;;;;;;5025153;28;20224;-62
2021/10/26 00:03:11;;;;;;;54.70;27.00;;;10.30;99.90;;;;;;5042795;28;20210;-62
2021/10/26 00:05:40;;;;;;;49.77;26.37;;;10.30;99.90;;;;;;5025264;28;20197;-62
2021/10/26 00:08:08;;;;;;;59.47;27.10;;;10.20;99.90;;;;;;5046440;28;20221;-62
2021/10/26 00:10:36;;;;;;;55.83;28.07;;;10.30;99.90;;;;;;5044031;28;20638;-61
2021/10/26 00:13:05;;;;;;;50.00;26.27;;;10.20;99.90;;;;;;5041516;28;20224;-62
2021/10/26 00:15:33;;;;;;;54.47;27.03;;;10.20;99.90;;;;;;5043977;28;20200;-62
2021/10/26 00:18:01;;;;;;;51.63;26.73;;;10.10;99.90;;;;;;5044865;28;20211;-62
2021/10/26 00:20:32;;;;;;;56.87;27.93;;;10.10;99.90;;;;;;5025410;28;20216;-59
2021/10/26 00:23:01;;;;;;;54.17;27.47;;;10.10;99.90;;;;;;5022550;28;20201;-61
2021/10/26 00:25:29;;;;;;;55.17;28.07;;;10.10;99.90;;;;;;5024508;28;20216;-62
2021/10/26 00:27:58;;;;;;;55.67;27.13;;;10.10;99.90;;;;;;5042511;28;20197;-62
2021/10/26 00:30:26;;;;;;;55.00;27.20;;;10.00;99.90;;;;;;5047082;28;20697;-62
2021/10/26 00:32:55;;;;;;;59.27;27.17;;;10.00;99.90;;;;;;5025849;28;20200;-62
2021/10/26 00:35:27;;;;;;;55.47;26.60;;;10.00;99.90;;;;;;5039184;28;20193;-62
2021/10/26 00:38:00;;;;;;;58.80;27.10;;;10.00;99.90;;;;;;5045299;28;20213;-61
2021/10/26 00:40:29;;;;;;;52.83;27.23;;;10.00;99.90;;;;;;5040480;28;20219;-62
2021/10/26 00:42:58;;;;;;;56.87;27.47;;;9.90;99.90;;;;;;5039705;28;20197;-62
2021/10/26 00:45:26;;;;;;;57.87;27.70;;;9.90;99.90;;;;;;5027362;28;20217;-61
2021/10/26 00:47:55;;;;;;;53.73;26.20;;;9.90;99.90;;;;;;5042661;28;20193;-62
2021/10/26 00:50:23;;;;;;;52.40;26.83;;;9.90;99.90;;;;;;5028838;28;20736;-62
2021/10/26 00:52:52;;;;;;;55.63;27.40;;;9.80;99.90;;;;;;5004854;28;20201;-62
2021/10/26 00:55:23;;;;;;;56.17;26.97;;;9.70;99.90;;;;;;5022396;28;20276;-62
2021/10/26 00:57:51;;;;;;;58.30;27.80;;;9.70;99.90;;;;;;5036183;28;20205;-61
2021/10/26 01:00:21;;;;;;;64.60;28.07;;;9.70;99.90;;;;;;5042235;28;20262;-62
2021/10/26 01:02:50;;;;;;;54.47;26.73;;;9.70;99.90;;;;;;5037391;28;20240;-62
2021/10/26 01:05:19;;;;;;;58.03;27.17;;;9.70;99.90;;;;;;5042368;28;20282;-62
2021/10/26 01:07:48;;;;;;;60.07;27.47;;;9.60;99.90;;;;;;5040652;28;20197;-62
2021/10/26 01:10:17;;;;;;;60.57;28.07;;;9.50;99.90;;;;;;5039095;28;20241;-62
2021/10/26 01:12:47;;;;;;;54.43;26.77;;;9.50;99.90;;;;;;5041995;28;20220;-62
2021/10/26 01:15:15;;;;;;;58.20;27.13;;;9.50;99.90;;;;;;5030265;28;20235;-62
2021/10/26 01:17:44;;;;;;;58.93;28.27;;;9.50;99.90;;;;;;5041909;28;20188;-61
2021/10/26 01:20:14;;;;;;;61.60;27.93;;;9.50;99.90;;;;;;5022254;28;20219;-62
2021/10/26 01:22:43;;;;;;;58.60;27.57;;;9.50;99.90;;;;;;5038945;28;20274;-62
2021/10/26 01:25:13;;;;;;;62.83;27.73;;;9.50;99.90;;;;;;5033689;28;20238;-61
2021/10/26 01:27:47;;;;;;;56.40;28.20;;;9.40;99.90;;;;;;5038095;28;20193;-62
2021/10/26 01:30:16;;;;;;;56.70;27.83;;;9.50;99.90;;;;;;5044062;28;20280;-62
2021/10/26 01:32:46;;;;;;;57.30;28.30;;;9.40;99.90;;;;;;5036012;28;20271;-62
2021/10/26 01:35:18;;;;;;;63.40;28.07;;;9.40;99.90;;;;;;5036889;28;20587;-62
2021/10/26 01:37:47;;;;;;;55.60;27.13;;;9.40;99.90;;;;;;5038031;28;20296;-62
2021/10/26 01:40:15;;;;;;;67.73;27.87;;;9.30;99.90;;;;;;5041162;28;20217;-61
2021/10/26 01:42:43;;;;;;;61.03;28.13;;;9.30;99.90;;;;;;5040773;28;20646;-62
2021/10/26 01:45:13;;;;;;;61.93;27.83;;;9.20;99.90;;;;;;5034180;28;20203;-62
2021/10/26 01:47:42;;;;;;;65.50;28.03;;;9.20;99.90;;;;;;5023485;28;20683;-62
2021/10/26 01:50:13;;;;;;;61.57;27.40;;;9.30;99.90;;;;;;5023379;28;20588;-62
2021/10/26 01:52:45;;;;;;;60.23;25.83;;;9.30;99.90;;;;;;5041333;28;20211;-62
2021/10/26 01:55:14;;;;;;;54.03;26.30;;;9.20;99.90;;;;;;5041921;28;20197;-62
2021/10/26 01:57:43;;;;;;;55.80;26.00;;;9.20;99.90;;;;;;5022473;28;20228;-62
2021/10/26 02:00:14;;;;;;;59.60;26.83;;;9.20;99.90;;;;;;5020108;28;20307;-62
2021/10/26 02:02:42;;;;;;;67.00;26.47;;;9.20;99.90;;;;;;5023016;28;20575;-61
2021/10/26 02:05:11;;;;;;;54.60;25.20;;;9.20;99.90;;;;;;5006577;28;20760;-62
2021/10/26 02:07:42;;;;;;;53.50;26.63;;;9.20;99.90;;;;;;5003955;28;20744;-62
2021/10/26 02:10:12;;;;;;;57.23;26.07;;;9.20;99.90;;;;;;5003211;28;20639;-62
2021/10/26 02:12:41;;;;;;;50.70;25.17;;;9.20;99.90;;;;;;5023071;28;20276;-61
2021/10/26 02:15:10;;;;;;;51.90;24.60;;;9.20;99.90;;;;;;5025380;28;20697;-62
2021/10/26 02:17:38;;;;;;;64.60;26.73;;;9.20;99.90;;;;;;5025621;28;20781;-62
2021/10/26 02:20:08;;;;;;;54.47;25.73;;;9.10;99.90;;;;;;5016728;28;20267;-61
2021/10/26 02:22:36;;;;;;;57.97;26.33;;;9.10;99.90;;;;;;5022344;28;20705;-62
2021/10/26 02:25:07;;;;;;;56.13;25.63;;;9.00;99.90;;;;;;5017984;28;20229;-60
2021/10/26 02:27:35;;;;;;;53.37;25.53;;;9.00;99.90;;;;;;5022435;28;20703;-62
2021/10/26 02:30:05;;;;;;;56.23;25.73;;;9.00;99.90;;;;;;5025929;28;20666;-62
2021/10/26 02:32:33;;;;;;;52.80;24.23;;;9.00;99.90;;;;;;5020845;28;20283;-62
2021/10/26 02:35:03;;;;;;;60.80;26.93;;;9.00;99.90;;;;;;5021098;28;20193;-62
2021/10/26 02:37:31;;;;;;;63.23;26.23;;;9.00;99.90;;;;;;5023110;28;20709;-62
2021/10/26 02:40:00;;;;;;;55.07;24.50;;;9.00;99.90;;;;;;5025030;28;20205;-62
2021/10/26 02:42:30;;;;;;;52.50;25.23;;;8.90;99.90;;;;;;5020756;28;20758;-62
2021/10/26 02:45:02;;;;;;;64.67;25.70;;;9.00;99.90;;;;;;5024182;28;20577;-62
2021/10/26 02:47:31;;;;;;;55.40;23.90;;;8.90;99.90;;;;;;5023699;28;20332;-61
2021/10/26 02:49:59;;;;;;;57.33;24.37;;;8.90;99.90;;;;;;5020316;28;20267;-62
2021/10/26 02:52:28;;;;;;;51.37;23.53;;;9.00;99.90;;;;;;5019565;28;20182;-62
2021/10/26 02:54:57;;;;;;;49.40;22.30;;;8.90;99.90;;;;;;5025060;28;20665;-62
2021/10/26 02:57:26;;;;;;;47.57;22.93;;;8.90;99.90;;;;;;5042189;28;20697;-62
2021/10/26 02:59:56;;;;;;;51.80;22.87;;;8.90;99.90;;;;;;5043708;28;20783;-62
2021/10/26 03:02:25;;;;;;;47.97;21.33;;;8.90;99.90;;;;;;5040469;28;20665;-62
2021/10/26 03:04:54;;;;;;;52.83;23.27;;;8.90;99.90;;;;;;5044099;28;20205;-62
2021/10/26 03:07:23;;;;;;;54.37;23.17;;;8.90;99.90;;;;;;5040872;28;20275;-62
2021/10/26 03:09:51;;;;;;;56.13;23.53;;;8.90;99.90;;;;;;5040606;28;20199;-61
2021/10/26 03:12:20;;;;;;;47.43;21.23;;;8.90;99.90;;;;;;5042506;28;20188;-62
2021/10/26 03:14:48;;;;;;;43.63;21.17;;;8.90;99.90;;;;;;5026284;28;20201;-62
2021/10/26 03:17:18;;;;;;;52.23;22.17;;;8.90;99.90;;;;;;5025273;28;20204;-61
2021/10/26 03:19:46;;;;;;;44.70;21.33;;;8.90;99.90;;;;;;5040726;28;20729;-59
2021/10/26 03:22:15;;;;;;;47.03;20.83;;;8.90;99.90;;;;;;5041405;28;20241;-62
2021/10/26 03:24:43;;;;;;;50.33;22.07;;;8.80;99.90;;;;;;5041770;28;20203;-58
2021/10/26 03:27:12;;;;;;;52.37;21.90;;;8.90;99.90;;;;;;5042458;28;20211;-62
2021/10/26 03:29:40;;;;;;;50.93;21.80;;;8.90;99.90;;;;;;5046303;28;20255;-61
2021/10/26 03:32:09;;;;;;;47.50;22.73;;;9.00;99.90;;;;;;5047085;28;20185;-62
2021/10/26 03:34:39;;;;;;;61.30;22.17;;;9.00;99.90;;;;;;5045944;28;20296;-61
2021/10/26 03:37:09;;;;;;;55.80;23.23;;;9.10;99.90;;;;;;5027578;28;20217;-62
2021/10/26 03:39:38;;;;;;;53.37;21.90;;;9.10;99.90;;;;;;5030521;28;20193;-61
2021/10/26 03:42:06;;;;;;;52.40;21.90;;;9.10;99.90;;;;;;5040030;28;20240;-62
2021/10/26 03:44:34;;;;;;;48.63;22.10;;;9.00;99.90;;;;;;5038639;28;20263;-61
2021/10/26 03:47:03;;;;;;;48.53;21.40;;;9.10;99.90;;;;;;5039592;28;20619;-62
2021/10/26 03:49:32;;;;;;;52.57;22.17;;;9.10;99.90;;;;;;5045440;28;20720;-62
2021/10/26 03:52:02;;;;;;;51.07;21.97;;;9.00;99.90;;;;;;5021998;28;20212;-61
2021/10/26 03:54:30;;;;;;;45.00;21.77;;;9.00;99.90;;;;;;5026386;28;20188;-62
2021/10/26 03:56:59;;;;;;;55.63;20.90;;;8.90;99.90;;;;;;5044568;28;20221;-62
2021/10/26 03:59:30;;;;;;;45.90;20.23;;;8.80;99.90;;;;;;5040162;28;20612;-62
2021/10/26 04:02:03;;;;;;;51.53;21.90;;;8.80;99.90;;;;;;5024026;28;20726;-61
2021/10/26 04:04:32;;;;;;;56.27;22.20;;;8.80;99.90;;;;;;5034326;28;20213;-62
2021/10/26 04:07:03;;;;;;;49.83;22.00;;;8.70;99.90;;;;;;5043263;28;20232;-62
2021/10/26 04:09:44;;;;;;;52.10;22.10;;;8.80;99.90;;;;;;5039733;28;20280;-62
2021/10/26 04:12:24;;;;;;;48.30;20.80;;;8.70;99.90;;;;;;5041412;28;20689;-62
2021/10/26 04:14:55;;;;;;;61.57;21.57;;;8.70;99.90;;;;;;5030529;28;20226;-61
2021/10/26 04:17:25;;;;;;;47.73;21.27;;;8.70;99.90;;;;;;5037982;28;20291;-62
2021/10/26 04:19:54;;;;;;;46.73;21.20;;;8.70;99.90;;;;;;5037253;28;20661;-62
2021/10/26 04:22:25;;;;;;;52.80;22.27;;;8.60;99.90;;;;;;5023305;28;20304;-62
2021/10/26 04:24:54;;;;;;;53.63;21.00;;;8.60;99.90;;;;;;5025381;28;20203;-62
2021/10/26 04:27:22;;;;;;;52.47;20.73;;;8.60;99.90;;;;;;5042884;28;20515;-61
2021/10/26 04:29:51;;;;;;;50.83;21.30;;;8.60;99.90;;;;;;5022204;28;20208;-62
2021/10/26 04:32:20;;;;;;;52.37;21.70;;;8.60;99.90;;;;;;5036674;28;20202;-62
2021/10/26 04:34:49;;;;;;;50.37;21.70;;;8.60;99.90;;;;;;5040605;28;20208;-61
2021/10/26 04:37:17;;;;;;;55.30;22.73;;;8.60;99.90;;;;;;5042263;28;20583;-62
2021/10/26 04:39:47;;;;;;;53.60;22.43;;;8.50;99.90;;;;;;5022782;28;20202;-62
2021/10/26 04:42:15;;;;;;;52.77;21.07;;;8.60;99.90;;;;;;5024186;28;20208;-62
2021/10/26 04:44:44;;;;;;;58.27;21.13;;;8.60;99.90;;;;;;5045850;28;20193;-62
2021/10/26 04:47:12;;;;;;;51.53;22.90;;;8.60;99.90;;;;;;5044414;28;20576;-62
2021/10/26 04:49:41;;;;;;;59.50;21.67;;;8.70;99.90;;;;;;5038694;28;20197;-62
2021/10/26 04:52:09;;;;;;;51.37;21.63;;;8.70;99.90;;;;;;5041136;28;20359;-62
2021/10/26 04:54:38;;;;;;;45.70;20.93;;;8.60;99.90;;;;;;5039668;28;20204;-62
2021/10/26 04:57:08;;;;;;;56.90;21.67;;;8.50;99.90;;;;;;5040758;28;20220;-62
2021/10/26 04:59:36;;;;;;;51.17;21.63;;;8.50;99.90;;;;;;5018809;28;20280;-62
2021/10/26 05:02:05;;;;;;;46.73;21.23;;;8.50;99.90;;;;;;5020192;28;20217;-62
2021/10/26 05:04:33;;;;;;;47.50;21.37;;;8.50;99.90;;;;;;5041240;28;20284;-62
2021/10/26 05:07:02;;;;;;;58.77;23.40;;;8.50;99.90;;;;;;5039734;28;20197;-62
2021/10/26 05:09:31;;;;;;;52.97;24.40;;;8.50;99.90;;;;;;5039828;28;20233;-62
2021/10/26 05:12:01;;;;;;;50.50;23.37;;;8.50;99.90;;;;;;5040134;28;20286;-62
2021/10/26 05:14:31;;;;;;;51.93;23.00;;;8.50;99.90;;;;;;5040409;28;20342;-62
2021/10/26 05:17:01;;;;;;;61.97;26.33;;;8.50;99.90;;;;;;5040639;28;20211;-62
2021/10/26 05:19:31;;;;;;;65.60;26.07;;;8.50;99.90;;;;;;5040408;28;20201;-62
2021/10/26 05:22:00;;;;;;;63.27;26.57;;;8.50;99.90;;;;;;5035875;28;20201;-61
2021/10/26 05:24:32;;;;;;;64.90;25.53;;;8.50;99.90;;;;;;5040265;28;20236;-61
2021/10/26 05:27:00;;;;;;;67.13;27.63;;;8.50;99.90;;;;;;5039221;28;20206;-62
2021/10/26 05:29:31;;;;;;;71.57;28.50;;;8.50;99.90;;;;;;5021539;28;20220;-61
2021/10/26 05:32:00;;;;;;;78.43;29.90;;;8.60;99.90;;;;;;5036850;28;20266;-62
2021/10/26 05:34:29;;;;;;;71.70;28.67;;;8.60;99.90;;;;;;5019470;28;20216;-59
2021/10/26 05:36:58;;;;;;;73.33;28.97;;;8.60;99.90;;;;;;5037764;28;20201;-61
2021/10/26 05:39:26;;;;;;;74.97;31.03;;;8.60;99.90;;;;;;5020791;28;20296;-61
2021/10/26 05:41:55;;;;;;;69.63;30.40;;;8.60;99.90;;;;;;5039347;28;20207;-61
2021/10/26 05:44:23;;;;;;;68.13;28.30;;;8.70;99.90;;;;;;5036012;28;20258;-61
2021/10/26 05:46:53;;;;;;;68.57;29.53;;;8.70;99.90;;;;;;5039309;28;21437;-61
2021/10/26 05:49:21;;;;;;;79.63;30.13;;;8.70;99.90;;;;;;5037189;28;20239;-62
2021/10/26 05:51:50;;;;;;;78.83;28.97;;;8.80;99.90;;;;;;5039848;28;20237;-62
2021/10/26 05:54:19;;;;;;;76.20;30.20;;;8.80;99.90;;;;;;5038530;28;20283;-62
2021/10/26 05:56:47;;;;;;;75.97;29.33;;;8.80;99.90;;;;;;5026360;28;20241;-62
2021/10/26 05:59:17;;;;;;;69.60;28.57;;;8.80;99.90;;;;;;5029205;28;20258;-61
2021/10/26 06:01:46;;;;;;;77.03;29.07;;;8.70;99.90;;;;;;5041607;28;20204;-62
2021/10/26 06:04:15;;;;;;;75.40;29.40;;;8.70;99.90;;;;;;5032813;28;20263;-61
2021/10/26 06:06:44;;;;;;;71.37;28.30;;;8.80;99.90;;;;;;5039654;28;20209;-61
2021/10/26 06:09:17;;;;;;;80.07;29.37;;;8.80;99.90;;;;;;5045680;28;20192;-62
2021/10/26 06:11:48;;;;;;;78.27;29.77;;;8.90;99.90;;;;;;5043820;28;20950;-62
2021/10/26 06:14:19;;;;;;;75.83;29.57;;;8.90;99.90;;;;;;5047174;28;20363;-62
2021/10/26 06:16:51;;;;;;;76.40;29.40;;;9.00;99.90;;;;;;5047719;28;20549;-62
2021/10/26 06:19:20;;;;;;;73.03;29.03;;;9.00;99.90;;;;;;5047059;28;20258;-62
2021/10/26 06:21:51;;;;;;;74.50;29.73;;;9.10;99.90;;;;;;5044556;28;20228;-62
2021/10/26 06:24:23;;;;;;;83.27;30.60;;;9.10;99.90;;;;;;5047613;28;20280;-62
2021/10/26 06:26:52;;;;;;;84.50;29.33;;;9.20;99.90;;;;;;5047487;28;20288;-62
2021/10/26 06:29:20;;;;;;;79.00;30.20;;;9.20;99.90;;;;;;5048109;28;20188;-62
2021/10/26 06:31:48;;;;;;;68.73;28.53;;;9.20;99.90;;;;;;5047000;28;20254;-62
2021/10/26 06:34:17;;;;;;;84.60;30.23;;;9.30;99.90;;;;;;5043191;28;20207;-62
2021/10/26 06:36:48;;;;;;;82.33;28.40;;;9.30;99.90;;;;;;5045630;28;20227;-62
2021/10/26 06:39:20;;;;;;;81.90;29.93;;;9.30;99.90;;;;;;5038412;28;20431;-61
2021/10/26 06:41:48;;;;;;;79.33;29.50;;;9.40;99.90;;;;;;5044828;28;20189;-62
2021/10/26 06:44:17;;;;;;;78.57;29.47;;;9.40;99.90;;;;;;5043852;28;20216;-62
2021/10/26 06:46:46;;;;;;;74.87;28.90;;;9.40;99.90;;;;;;5038245;28;20212;-62
2021/10/26 06:49:14;;;;;;;79.80;29.03;;;9.40;99.90;;;;;;5045804;28;20208;-62
2021/10/26 06:51:43;;;;;;;78.77;30.00;;;9.50;99.90;;;;;;5043030;28;20212;-61
2021/10/26 06:54:12;;;;;;;78.20;30.07;;;9.50;99.90;;;;;;5025686;28;20192;-62
2021/10/26 06:56:41;;;;;;;76.57;29.50;;;9.50;99.90;;;;;;5043916;28;20232;-62
2021/10/26 06:59:09;;;;;;;96.53;41.13;;;9.60;99.90;;;;;;5026067;28;20231;-60
2021/10/26 07:01:37;;;;;;;107.80;50.40;;;9.60;99.90;;;;;;5026952;28;20199;-61
2021/10/26 07:04:06;;;;;;;96.73;43.23;;;9.60;99.90;;;;;;5044307;28;20236;-62
2021/10/26 07:06:34;;;;;;;83.47;35.80;;;9.70;99.90;;;;;;5042986;28;20208;-61
2021/10/26 07:09:03;;;;;;;88.23;35.70;;;9.70;99.90;;;;;;5043987;28;20292;-62
2021/10/26 07:11:34;;;;;;;79.07;31.70;;;9.70;99.90;;;;;;5044807;28;20303;-62
2021/10/26 07:14:03;;;;;;;80.17;31.93;;;9.80;99.90;;;;;;5044657;28;20279;-62
2021/10/26 07:16:31;;;;;;;71.97;30.77;;;9.80;99.90;;;;;;5042451;28;20231;-59
2021/10/26 07:18:59;;;;;;;69.23;28.63;;;9.80;99.90;;;;;;5030378;28;20197;-63
2021/10/26 07:21:28;;;;;;;85.23;32.83;;;9.80;99.90;;;;;;5022172;28;20205;-61
2021/10/26 07:23:56;;;;;;;70.67;30.43;;;9.80;99.90;;;;;;5046116;28;20236;-60
2021/10/26 07:26:27;;;;;;;72.40;29.43;;;9.90;99.90;;;;;;5041725;28;20291;-62
2021/10/26 07:29:00;;;;;;;69.20;30.13;;;9.90;99.90;;;;;;5041667;28;20259;-59
2021/10/26 07:31:28;;;;;;;66.50;31.13;;;9.90;99.90;;;;;;5042529;28;20304;-62
2021/10/26 07:33:58;;;;;;;62.97;27.63;;;9.90;99.90;;;;;;5040987;28;20250;-61
2021/10/26 07:36:30;;;;;;;71.70;31.60;;;10.00;99.90;;;;;;5045225;28;20280;-63
2021/10/26 07:39:01;;;;;;;66.00;29.80;;;10.10;99.90;;;;;;5046814;28;20275;-62
2021/10/26 07:41:33;;;;;;;67.50;28.70;;;10.10;99.90;;;;;;5045164;28;20495;-63
2021/10/26 07:44:06;;;;;;;56.67;26.77;;;10.00;99.90;;;;;;5043321;28;20244;-63
2021/10/26 07:46:34;;;;;;;59.07;29.63;;;10.10;99.90;;;;;;5027808;28;20206;-62
2021/10/26 07:49:06;;;;;;;61.10;29.80;;;10.20;99.90;;;;;;5040344;28;20238;-63
2021/10/26 07:51:35;;;;;;;61.93;26.70;;;10.20;99.90;;;;;;5046417;28;20197;-63
2021/10/26 07:54:04;;;;;;;65.80;26.57;;;10.20;99.90;;;;;;5035662;28;20193;-62
2021/10/26 07:56:32;;;;;;;52.63;25.93;;;10.30;99.90;;;;;;5043417;28;20228;-62
2021/10/26 07:59:02;;;;;;;60.60;25.90;;;10.40;99.90;;;;;;5043451;28;20291;-62
2021/10/26 08:01:32;;;;;;;59.33;27.17;;;10.30;99.90;;;;;;5021712;28;20720;-62
2021/10/26 08:04:01;;;;;;;57.40;27.13;;;10.30;99.90;;;;;;5039321;28;20683;-62
2021/10/26 08:06:29;;;;;;;52.77;26.80;;;10.30;99.90;;;;;;5041240;28;20577;-62
2021/10/26 08:09:00;;;;;;;48.87;25.53;;;10.30;99.90;;;;;;5023509;28;20196;-62
2021/10/26 08:11:29;;;;;;;47.03;27.47;;;10.40;99.90;;;;;;5040841;28;20216;-62
2021/10/26 08:13:58;;;;;;;47.33;26.20;;;10.40;99.90;;;;;;5023802;28;20591;-62
2021/10/26 08:16:26;;;;;;;53.27;26.63;;;10.50;99.90;;;;;;5042848;28;20208;-62
2021/10/26 08:18:59;;;;;;;43.93;24.97;;;10.50;99.90;;;;;;5040648;28;20900;-62
2021/10/26 08:21:28;;;;;;;49.77;25.30;;;10.70;99.90;;;;;;5026709;28;20204;-61
2021/10/26 08:23:57;;;;;;;42.37;22.93;;;10.70;99.90;;;;;;5043614;28;20785;-62
2021/10/26 08:26:28;;;;;;;46.27;24.10;;;10.80;99.90;;;;;;5045504;28;20626;-62
2021/10/26 08:29:04;;;;;;;39.67;22.17;;;10.80;99.90;;;;;;5022756;28;20203;-62
2021/10/26 08:31:40;;;;;;;39.03;21.50;;;10.80;99.90;;;;;;5022883;28;20605;-61
2021/10/26 08:34:14;;;;;;;40.47;21.43;;;10.90;99.90;;;;;;5015873;28;20584;-62
2021/10/26 08:36:44;;;;;;;39.37;22.50;;;10.90;99.90;;;;;;5043652;28;20199;-62
2021/10/26 08:39:13;;;;;;;42.90;22.63;;;10.80;99.90;;;;;;5024564;28;20640;-62
2021/10/26 08:41:45;;;;;;;35.63;20.50;;;11.00;99.90;;;;;;5046029;28;20275;-62
2021/10/26 08:44:17;;;;;;;43.07;22.10;;;11.00;99.90;;;;;;5025647;28;21243;-62
2021/10/26 08:46:46;;;;;;;42.60;21.63;;;11.00;99.90;;;;;;5025882;28;20200;-63
2021/10/26 08:49:18;;;;;;;39.57;20.47;;;11.10;99.90;;;;;;5023166;28;20226;-63
2021/10/26 08:51:48;;;;;;;35.90;20.57;;;11.20;99.90;;;;;;5043143;28;20196;-62
2021/10/26 08:54:17;;;;;;;40.67;21.30;;;11.20;99.90;;;;;;5040331;28;20573;-62
2021/10/26 08:56:47;;;;;;;33.43;19.70;;;11.30;99.90;;;;;;5043956;28;20727;-63
2021/10/26 08:59:17;;;;;;;41.03;20.97;;;11.40;99.90;;;;;;5043082;28;20661;-62
2021/10/26 09:01:55;;;;;;;38.20;21.27;;;11.40;99.90;;;;;;5025045;28;20205;-61
2021/10/26 09:04:31;;;;;;;38.03;20.63;;;11.60;99.90;;;;;;5037825;28;20585;-62
2021/10/26 09:07:04;;;;;;;37.53;19.77;;;11.50;99.90;;;;;;5039789;28;20478;-62
2021/10/26 09:09:34;;;;;;;30.83;19.07;;;11.60;99.90;;;;;;5043532;28;20720;-62
2021/10/26 09:17:51;;;;;;;30.30;18.20;;;12.10;99.90;;;;;;5044823;28;20247;-62
2021/10/26 09:20:28;;;;;;;27.33;17.23;;;12.30;99.90;;;;;;5044973;28;20922;-62
2021/10/26 09:23:00;;;;;;;33.07;18.37;;;12.30;99.90;;;;;;5041573;28;20215;-62
2021/10/26 09:25:34;;;;;;;30.17;16.80;;;12.50;99.90;;;;;;5040611;28;20696;-62
2021/10/26 09:28:13;;;;;;;27.90;17.77;;;12.50;99.90;;;;;;5046824;28;20203;-57
2021/10/26 09:30:42;;;;;;;27.93;16.67;;;12.50;99.90;;;;;;5019852;28;20745;-62
2021/10/26 09:33:10;;;;;;;28.93;16.30;;;12.60;99.90;;;;;;5045038;28;20202;-61
2021/10/26 09:35:40;;;;;;;23.83;15.87;;;12.60;99.90;;;;;;5040623;28;20200;-62
2021/10/26 09:38:09;;;;;;;22.40;15.23;;;12.60;99.90;;;;;;5041324;28;20406;-62
2021/10/26 09:40:40;;;;;;;24.10;14.80;;;12.70;99.90;;;;;;5039056;28;20352;-62
2021/10/26 09:43:10;;;;;;;25.27;15.17;;;12.90;99.90;;;;;;5045148;28;20649;-62
2021/10/26 09:45:40;;;;;;;24.77;14.67;;;13.00;99.90;;;;;;5043596;28;20274;-62
2021/10/26 09:48:13;;;;;;;23.13;14.87;;;13.10;99.90;;;;;;5042747;28;20205;-62
2021/10/26 09:50:43;;;;;;;21.00;13.97;;;13.10;99.90;;;;;;5043448;28;20204;-62
2021/10/26 09:53:13;;;;;;;23.27;13.77;;;13.40;99.90;;;;;;5039610;28;20788;-62
2021/10/26 09:55:44;;;;;;;21.10;12.80;;;13.50;99.90;;;;;;5038701;28;20253;-63
2021/10/26 09:58:15;;;;;;;19.07;13.07;;;13.60;99.90;;;;;;5038704;28;20288;-62
2021/10/26 10:00:45;;;;;;;20.57;11.67;;;13.60;99.90;;;;;;5024582;28;20196;-62
2021/10/26 10:03:18;;;;;;;21.30;11.70;;;13.60;99.90;;;;;;5040397;28;20211;-62
2021/10/26 10:05:53;;;;;;;18.27;11.00;;;13.80;99.90;;;;;;5041088;28;20290;-62
2021/10/26 10:08:23;;;;;;;16.20;10.33;;;14.00;99.90;;;;;;5037353;28;20204;-62
2021/10/26 10:10:53;;;;;;;19.43;11.53;;;14.20;99.90;;;;;;5039997;28;20355;-62
2021/10/26 10:13:22;;;;;;;15.80;10.60;;;14.10;99.90;;;;;;5033316;28;20633;-62
2021/10/26 10:15:51;;;;;;;16.57;10.93;;;14.00;99.90;;;;;;5021746;28;20200;-62
2021/10/26 10:18:20;;;;;;;14.03;9.90;;;14.00;99.90;;;;;;5038475;28;20204;-62
2021/10/26 10:20:53;;;;;;;18.37;10.33;;;14.20;99.90;;;;;;5039896;28;20203;-62
2021/10/26 10:23:22;;;;;;;15.63;9.97;;;14.40;99.90;;;;;;5042058;28;20278;-61
2021/10/26 10:25:52;;;;;;;17.33;10.30;;;14.30;99.90;;;;;;5041030;28;20226;-62
2021/10/26 10:28:24;;;;;;;16.37;11.03;;;14.40;99.90;;;;;;5041181;28;20251;-63
2021/10/26 10:30:55;;;;;;;15.97;9.03;;;14.70;99.90;;;;;;5040653;28;20197;-61
2021/10/26 10:33:24;;;;;;;17.73;9.80;;;14.90;99.90;;;;;;5035467;28;20296;-61
2021/10/26 10:35:58;;;;;;;17.17;9.93;;;15.00;99.90;;;;;;5021751;28;20277;-61
2021/10/26 10:38:29;;;;;;;18.50;9.67;;;15.00;99.90;;;;;;5038727;28;20288;-61
2021/10/26 10:41:23;;;;;;;13.50;9.23;;;15.00;99.90;;;;;;5039862;28;20276;-60
2021/10/26 10:43:53;;;;;;;19.97;11.27;;;14.80;99.90;;;;;;5031281;28;20291;-60
2021/10/26 10:46:41;;;;;;;17.63;10.30;;;14.80;99.90;;;;;;5035848;28;20466;-60
2021/10/26 10:49:43;;;;;;;17.90;9.70;;;14.80;99.90;;;;;;5026260;28;20203;-60
2021/10/26 10:52:15;;;;;;;17.50;10.33;;;14.90;99.90;;;;;;4969007;28;20647;-58
2021/10/26 10:54:49;;;;;;;18.90;10.00;;;14.90;99.90;;;;;;4970128;28;20318;-61
2021/10/26 10:57:20;;;;;;;17.10;10.10;;;14.90;99.90;;;;;;4983017;28;20222;-59
2021/10/26 10:59:51;;;;;;;16.73;9.60;;;15.00;99.90;;;;;;4984373;28;20198;-60
2021/10/26 11:02:27;;;;;;;13.43;9.43;;;14.80;99.90;;;;;;5013391;28;20216;-61
2021/10/26 11:04:57;;;;;;;15.47;9.10;;;14.90;99.90;;;;;;5017799;28;20320;-61
2021/10/26 11:07:52;;;;;;;15.40;10.10;;;14.60;99.90;;;;;;5017606;28;20213;-61
2021/10/26 11:10:21;;;;;;;16.00;10.23;;;14.70;99.90;;;;;;5011378;28;20267;-61
2021/10/26 11:12:52;;;;;;;13.27;8.43;;;15.10;99.90;;;;;;5016917;28;20206;-61
2021/10/26 11:15:42;;;;;;;13.07;7.70;;;15.20;99.90;;;;;;5019881;28;20281;-61
2021/10/26 11:18:10;;;;;;;13.90;7.97;;;15.40;99.90;;;;;;5021323;28;20278;-61
2021/10/26 11:20:52;;;;;;;15.37;7.70;;;15.30;99.90;;;;;;5018997;28;20662;-59
2021/10/26 11:23:51;;;;;;;13.13;8.33;;;15.20;99.90;;;;;;5007548;28;20194;-60
2021/10/26 11:26:20;;;;;;;11.03;8.00;;;14.90;99.90;;;;;;5022391;28;20202;-61
2021/10/26 11:28:55;;;;;;;16.13;8.23;;;15.00;99.90;;;;;;5023927;28;20213;-61
2021/10/26 11:31:26;;;;;;;13.37;7.67;;;14.90;99.90;;;;;;5020858;28;20286;-61
2021/10/26 11:33:58;;;;;;;13.83;7.90;;;14.80;99.90;;;;;;5008490;28;20220;-61
2021/10/26 11:36:33;;;;;;;13.20;7.77;;;14.80;99.90;;;;;;5024052;28;20468;-61
2021/10/26 11:39:11;;;;;;;13.83;6.33;;;14.90;99.90;;;;;;5023674;28;20291;-60
2021/10/26 11:41:43;;;;;;;13.87;7.20;;;15.30;99.90;;;;;;5024371;28;20209;-61
2021/10/26 11:44:14;;;;;;;12.97;7.73;;;15.50;99.90;;;;;;5004582;28;20194;-61
2021/10/26 11:46:44;;;;;;;12.80;7.50;;;15.70;99.90;;;;;;5022167;28;20467;-61
2021/10/26 11:49:20;;;;;;;15.50;8.53;;;16.10;99.90;;;;;;5026390;28;20215;-61
2021/10/26 11:51:50;;;;;;;13.37;7.63;;;16.10;99.90;;;;;;5020539;28;20223;-61
2021/10/26 11:54:23;;;;;;;14.33;9.13;;;16.40;99.90;;;;;;5017670;28;20206;-61
2021/10/26 11:56:52;;;;;;;15.20;8.50;;;16.10;99.90;;;;;;5032395;28;20319;-61
2021/10/26 11:59:33;;;;;;;15.30;8.43;;;15.70;99.90;;;;;;5039141;28;20331;-61
2021/10/26 12:02:10;;;;;;;11.37;7.27;;;15.50;99.90;;;;;;5040561;28;20217;-61
2021/10/26 12:04:40;;;;;;;10.73;7.13;;;15.90;99.90;;;;;;5042402;28;20204;-61
2021/10/26 12:07:11;;;;;;;18.23;8.03;;;16.10;99.90;;;;;;5042989;28;20610;-61
2021/10/26 12:09:42;;;;;;;11.67;7.60;;;16.20;99.90;;;;;;5044797;28;20194;-61
2021/10/26 12:12:13;;;;;;;10.07;7.40;;;16.40;99.90;;;;;;5041272;28;20193;-60
2021/10/26 12:14:43;;;;;;;12.47;7.63;;;16.50;99.90;;;;;;5040568;28;20199;-61
2021/10/26 12:17:19;;;;;;;13.37;8.27;;;16.10;99.90;;;;;;5042046;28;20213;-61
2021/10/26 12:20:07;;;;;;;9.70;7.70;;;15.80;99.90;;;;;;5032214;28;20796;-61
2021/10/26 12:22:39;;;;;;;15.60;7.77;;;15.60;99.90;;;;;;5022726;28;20780;-61
2021/10/26 12:25:17;;;;;;;10.73;7.77;;;15.40;99.90;;;;;;5023966;28;20692;-61
2021/10/26 12:27:48;;;;;;;12.03;6.90;;;15.50;99.90;;;;;;5039372;28;20935;-61
2021/10/26 12:30:23;;;;;;;12.27;6.83;;;15.70;99.90;;;;;;5037486;28;20222;-61
2021/10/26 12:32:54;;;;;;;11.47;5.70;;;15.90;99.90;;;;;;5041778;28;20208;-61
2021/10/26 12:35:28;;;;;;;9.80;5.90;;;16.10;99.90;;;;;;5024467;28;20205;-61
2021/10/26 12:38:15;;;;;;;7.83;5.97;;;16.20;99.90;;;;;;5040327;28;20193;-61
2021/10/26 12:40:47;;;;;;;6.23;5.60;;;16.50;99.90;;;;;;5042023;28;20327;-61
2021/10/26 12:43:22;;;;;;;9.10;5.83;;;16.60;99.90;;;;;;5046292;28;20293;-61
2021/10/26 12:45:53;;;;;;;9.10;5.73;;;16.70;99.90;;;;;;5043214;28;20661;-61
2021/10/26 12:48:23;;;;;;;12.40;6.10;;;16.50;99.90;;;;;;5025174;28;20285;-60
2021/10/26 12:50:59;;;;;;;10.37;5.80;;;16.40;99.90;;;;;;5041654;28;20205;-61
2021/10/26 12:53:34;;;;;;;11.50;5.73;;;16.40;99.90;;;;;;5044516;28;20196;-61
2021/10/26 12:56:17;;;;;;;10.40;5.67;;;16.30;99.90;;;;;;5044861;28;20307;-61